Charlottesville, VA (22901)

6:18 PM EDT on July 30, 2016 (GMT -0400)
Montvue | | Change Station
Active Advisory: Flood Warning

Elev 571 ft 38.07 °N, 78.51 °W | Updated 0 second ago

Clear
Clear
75.9 °F
Feels Like 75 °F
N
0.0
Wind Variable Wind from ENE
Gusts 0.0 mph

Today
High -- | Low -- °F
--% Chance of Precip.
Yesterday
High -- | Low -- °F
Precip. -- in
Pressure 29.93 in
Visibility 10.0 miles
Clouds Clear
Heat Index 75 °F
Dew Point 74 °F
Humidity 93%
Rainfall 0.99 in
Snow Depth Not available.
6:15 AM 8:24 PM
Waning Crescent, 10% visible
SPECI KCHO 302156Z 19008KT 10SM CLR 26/22 A2993 RMK AO2 LTG DSNT SE TSE55 T02610217
Pressure 29.93 in
Visibility 10.0 miles
Clouds Clear
Heat Index 75 °F
Dew Point 74 °F
Humidity 93%
Rainfall 0.99 in
Snow Depth Not available.
6:15 AM 8:24 PM
Waning Crescent, 10% visible
SPECI KCHO 302156Z 19008KT 10SM CLR 26/22 A2993 RMK AO2 LTG DSNT SE TSE55 T02610217

10-Day Weather Forecast

Almanac

Astronomy

Jul. 30, 2016 Rise Set
Actual Time
Civil Twilight
Nautical Twilight
Astronomical Twilight
Moon
Length of Visible Light
Length of Day
Tomorrow will be .
, % of the Moon is Illuminated

Today's Extremes

State Highs State Lows

Community

WunderPhotos

Upload Photos

1,928,661 photos uploaded!

WunderBlog® & News

Nearby

Air Quality

  Air Quality AQ Index Pollutant
Not available.

Snow Depth

Station Depth Elevation

Earthquake Activity

City Distance Mag. Time & Date
Minimum magnitude displayed is 2.5.

Coastal Water Temperatures

Place Temperature

Stations

Nearby Weather Stations

Station Location Temp. Windchill Dew Point Humidity Wind Precip. Elev Updated Type
                   

Watches & Warnings

Flood Warning
Issued: 6:11 PM EDT Jul. 30, 2016 – National Weather Service

... The Flash Flood Warning for east central Albemarle County and the
city of Charlottesville is cancelled...

Flood waters have receded and no longer pose a threat to life or
property. Be alert for remaining standing water and continue to
follow Road closures.

Lat... Lon 3815 7833 3801 7831 3801 7854 3815 7854


Rcm